Terminal Aerodrome Forecast
Issued by NWS Wilmington, NC

Current Version | Previous Version | Text Only | Print | Product List | Glossary On
Versions: 1 2 3 4 5 6 7 8 9 10 11 12 13 14 15 16 17 18 19
697
FTUS42 KILM 171345 AAB
TAFILM
TAF AMD
KILM 171345Z 1714/1812 02003KT P6SM SCT008 BKN080
      TEMPO 1714/1716 4SM BR BKN008
     FM171600 27005KT P6SM SCT007 BKN012
     FM171800 23011KT P6SM SCT250
     FM180200 20007KT P6SM FEW250=

USA.gov is the U.S. government's official web portal to all federal, state and local government web resources and services.